Flight Track Log - Related Links

Times and Time Zones

All times are in EDT time to prevent confusion due to time zone crossing. See the JIA2328 flight status page for this flight to view local times or setup timezone preferences in your user account.

Time Position Orientation Groundspeed Altitude Reporting Facility
EDT Latitude Longitude Course Direction KTS MPH feet Rate Location/Type
Fri 07:11:22 PM 35.2431 -80.9389 106° East 148 170 2,100  Level Atlanta Center
Fri 07:12:35 PM 35.3006 -80.9061 25° Northeast 218 251 5,200 2,443 Climbing Atlanta Center
Fri 07:13:42 PM 35.2961 -80.8147 93° East 243 280 7,800 2,213 Climbing Atlanta Center
Fri 07:14:00 PM 35.0647 -80.4917 106° East  Level FlightAware Approximate
Fri 07:14:37 PM 35.2917 -80.7233 93° East 308 354 9,700  Level Atlanta Center
Fri 07:15:00 PM 35.0342 -80.3632 106° East  Level FlightAware Approximate
Fri 07:15:44 PM 35.2575 -80.6178 112° Southeast 344 396 10,900  Level Atlanta Center
Fri 07:16:00 PM 35.0036 -80.2348 106° East  Level FlightAware Approximate
Fri 07:16:44 PM 35.2350 -80.4892 102° East 358 412 11,800  Level Atlanta Center
Fri 07:19:03 PM 35.1889 -80.1464 99° East 435 501 14,800 1,200 Climbing Washington Center
Fri 07:20:04 PM 35.1689 -80.0081 100° East 441 507 15,800 1,091 Climbing Washington Center
Fri 07:21:04 PM 35.1478 -79.8467 99° East 447 514 17,000 958 Climbing Washington Center
Fri 07:22:03 PM 35.1297 -79.7036 99° East 454 522 17,700 706 Climbing Washington Center
Fri 07:23:03 PM 35.1078 -79.5500 100° East 460 529 18,400 595 Climbing Washington Center
Fri 07:24:04 PM 35.0861 -79.3867 99° East 467 537 18,900 298 Climbing Washington Center
Fri 07:25:04 PM 35.0619 -79.2231 100° East 478 550 19,000 51 Climbing Washington Center
Fri 07:26:02 PM 35.0394 -79.0622 100° East 478 550 19,000  Level Washington Center
Fri 07:27:03 PM 35.0114 -78.8811 101° East 490 564 19,000  Level Washington Center
Fri 07:28:04 PM 34.9758 -78.7225 105° East 490 564 19,000 -353 Level Washington Center
Fri 07:29:02 PM 34.9403 -78.5589 105° East 490 564 18,300 -1,729 Descending Washington Center
Fri 07:30:02 PM 34.9067 -78.4058 105° East 490 564 15,600 -2,777 Descending Washington Center
Fri 07:31:03 PM 34.8744 -78.2603 105° East 468 539 12,700 -2,410 Descending Washington Center
Fri 07:32:04 PM 34.8461 -78.1253 104° East 439 505 10,700 -1,664 Descending Washington Center
Fri 07:33:02 PM 34.8172 -78.0056 106° East 402 463 9,400 -1,765 Descending Washington Center
Fri 07:34:03 PM 34.7961 -77.9139 106° East 357 411 7,200 -2,164 Descending Washington Center

Login

Don't have an account? Register now (free) for customized features, flight alerts, and more!